createdAt,value
2023-09-23T00:09:19.399Z,13
2023-09-23T00:19:25.992Z,15
2023-09-23T00:29:31.740Z,11.2
2023-09-23T00:39:38.096Z,12.8
2023-09-23T00:49:44.786Z,9.6
2023-09-23T00:59:51.258Z,12.1
2023-09-23T01:09:57.658Z,14.1
2023-09-23T01:20:04.323Z,19.7
2023-09-23T01:30:10.788Z,23
2023-09-23T01:40:17.420Z,23.2
2023-09-23T01:50:23.892Z,24.9
2023-09-23T02:00:30.469Z,22
2023-09-23T02:10:36.782Z,23.4
2023-09-23T02:20:43.510Z,26.1
2023-09-23T02:30:49.911Z,26.7
2023-09-23T02:40:56.415Z,27.8
2023-09-23T02:51:02.960Z,31.4
2023-09-23T03:01:09.452Z,31.1
2023-09-23T03:11:16.141Z,22
2023-09-23T03:21:22.643Z,18.9
2023-09-23T03:31:29.198Z,18.6
2023-09-23T03:41:35.740Z,26
2023-09-23T03:51:42.066Z,29.3
2023-09-23T04:01:48.767Z,33.5
2023-09-23T04:11:54.963Z,41.8
2023-09-23T04:22:01.619Z,45.2
2023-09-23T04:32:08.303Z,52
2023-09-23T04:42:14.927Z,51.7
2023-09-23T04:52:21.242Z,58.8
2023-09-23T05:02:27.642Z,73.7
2023-09-23T05:12:34.113Z,73.9
2023-09-23T05:22:40.793Z,63.4
2023-09-23T05:32:47.232Z,60.7
2023-09-23T05:42:53.961Z,68.9
2023-09-23T05:53:00.256Z,59.2
2023-09-23T06:03:06.772Z,60.3
2023-09-23T06:13:13.486Z,63.2
2023-09-23T06:23:19.849Z,51.1
2023-09-23T06:33:26.308Z,42.3
2023-09-23T06:43:33.498Z,34.8
2023-09-23T06:53:40.757Z,29.6
2023-09-23T07:03:48.129Z,28.6
2023-09-23T07:13:55.314Z,21.4
2023-09-23T07:24:02.360Z,23.5
2023-09-23T07:34:09.670Z,22.1
2023-09-23T07:44:16.780Z,26.2
2023-09-23T07:54:24.074Z,30.2
2023-09-23T08:04:31.179Z,30.4
2023-09-23T08:14:38.404Z,31.7
2023-09-23T08:24:45.465Z,28.1
2023-09-23T08:34:52.711Z,23.4
2023-09-23T08:44:59.822Z,23.6
2023-09-23T08:55:07.941Z,26.5
2023-09-23T09:05:16.343Z,24.6
2023-09-23T09:15:24.454Z,24.3
2023-09-23T09:25:32.861Z,21.1
2023-09-23T09:35:41.378Z,19.1
2023-09-23T09:45:49.460Z,18
2023-09-23T09:55:57.785Z,23.8
2023-09-23T10:06:05.046Z,17.9
2023-09-23T10:16:12.364Z,14.6
2023-09-23T10:26:19.426Z,13.8
2023-09-23T10:36:26.621Z,16.8
2023-09-23T10:46:33.790Z,10.7
2023-09-23T10:56:40.834Z,13.3
2023-09-23T11:06:47.864Z,10.6
2023-09-23T11:16:54.907Z,8.9
2023-09-23T11:27:02.409Z,10.6
2023-09-23T11:37:08.387Z,10.2
2023-09-23T11:47:14.919Z,8.7
2023-09-23T11:57:21.550Z,13.9
2023-09-23T12:07:28.086Z,9.2
2023-09-23T12:17:34.580Z,8.1
2023-09-23T12:27:40.918Z,9.3
2023-09-23T12:37:47.646Z,10.5
2023-09-23T12:47:54.095Z,9.3
2023-09-23T12:58:00.812Z,7.5
2023-09-23T13:08:07.220Z,10.1
2023-09-23T13:18:13.655Z,7.3
2023-09-23T13:28:20.241Z,9.5
2023-09-23T13:38:26.716Z,8.6
2023-09-23T13:48:33.298Z,8.9
2023-09-23T13:58:39.886Z,8.5
2023-09-23T14:08:46.477Z,10
2023-09-23T14:18:52.955Z,10.6
2023-09-23T14:28:59.480Z,11
2023-09-23T14:39:05.988Z,13.4
2023-09-23T14:49:12.387Z,7.6
2023-09-23T14:59:18.953Z,9.2
2023-09-23T15:09:24.612Z,9
2023-09-23T15:19:30.736Z,7.1
2023-09-23T15:29:37.076Z,11
2023-09-23T15:39:43.563Z,6.7
2023-09-23T15:49:49.712Z,4.7
2023-09-23T15:59:55.764Z,9.3
2023-09-23T16:10:02.035Z,7
2023-09-23T16:20:08.479Z,9
2023-09-23T16:30:14.630Z,9.2
2023-09-23T16:40:20.788Z,10.4
2023-09-23T16:50:27.055Z,7.2
2023-09-23T17:00:33.309Z,10.3
2023-09-23T17:10:39.580Z,11.4
2023-09-23T17:20:45.842Z,9.5
2023-09-23T17:30:52.070Z,7.1
2023-09-23T17:40:58.594Z,11.8
2023-09-23T17:51:04.724Z,10.7
2023-09-23T18:01:10.929Z,9.2
2023-09-23T18:11:17.133Z,7.7
2023-09-23T18:21:23.447Z,11.9
2023-09-23T18:31:29.610Z,11.7
2023-09-23T18:41:36.040Z,9
2023-09-23T18:51:42.150Z,9.5
2023-09-23T19:01:48.384Z,8.1
2023-09-23T19:11:54.647Z,12.3
2023-09-23T19:22:01.174Z,8.5
2023-09-23T19:32:07.881Z,12.1
2023-09-23T19:42:14.341Z,10.9
2023-09-23T19:52:20.941Z,8.9
2023-09-23T20:02:27.265Z,9.3
2023-09-23T20:12:33.842Z,9.4
2023-09-23T20:22:40.398Z,9.9
2023-09-23T20:32:46.897Z,13.4
2023-09-23T20:42:53.369Z,12.2
2023-09-23T20:52:59.886Z,14.1
2023-09-23T21:03:06.542Z,15.3
2023-09-23T21:13:13.159Z,12.8
2023-09-23T21:23:19.530Z,15.5
2023-09-23T21:33:26.647Z,15.5
2023-09-23T21:43:33.825Z,20
2023-09-23T21:53:41.097Z,19.7
2023-09-23T22:03:48.182Z,18
2023-09-23T22:13:55.476Z,21
2023-09-23T22:24:02.627Z,20.9
2023-09-23T22:34:09.812Z,21.1
2023-09-23T22:44:17.140Z,26.5
2023-09-23T22:54:24.148Z,27
2023-09-23T23:04:31.275Z,21.3
2023-09-23T23:14:38.586Z,23.8
2023-09-23T23:24:45.837Z,23.8
2023-09-23T23:34:52.841Z,27
2023-09-23T23:45:01.117Z,31.3
2023-09-23T23:55:09.543Z,30.8
